sensor_id;sensor_type;location;lat;lon;timestamp;pressure;altitude;pressure_sealevel;temperature;humidity
43770;BME280;6597;52.218;9.882;2022-12-11T00:01:43;100369.84;;;-1.43;100.00
43770;BME280;6597;52.218;9.882;2022-12-11T00:04:10;100373.28;;;-1.43;100.00
43770;BME280;6597;52.218;9.882;2022-12-11T00:06:36;100368.16;;;-1.38;100.00
43770;BME280;6597;52.218;9.882;2022-12-11T00:09:03;100371.53;;;-1.45;100.00
43770;BME280;6597;52.218;9.882;2022-12-11T00:11:29;100360.38;;;-1.44;100.00
43770;BME280;6597;52.218;9.882;2022-12-11T00:13:56;100366.44;;;-1.39;100.00
43770;BME280;6597;52.218;9.882;2022-12-11T00:16:22;100363.84;;;-1.41;100.00
43770;BME280;6597;52.218;9.882;2022-12-11T00:18:50;100361.28;;;-1.39;100.00
43770;BME280;6597;52.218;9.882;2022-12-11T00:21:17;100349.25;;;-1.40;100.00
43770;BME280;6597;52.218;9.882;2022-12-11T00:23:43;100351.84;;;-1.40;100.00
43770;BME280;6597;52.218;9.882;2022-12-11T00:26:12;100346.69;;;-1.40;100.00
43770;BME280;6597;52.218;9.882;2022-12-11T00:28:39;100349.25;;;-1.40;100.00
43770;BME280;6597;52.218;9.882;2022-12-11T00:31:08;100354.41;;;-1.40;100.00
43770;BME280;6597;52.218;9.882;2022-12-11T00:33:36;100350.09;;;-1.41;100.00
43770;BME280;6597;52.218;9.882;2022-12-11T00:36:10;100342.38;;;-1.41;100.00
43770;BME280;6597;52.218;9.882;2022-12-11T00:38:36;100348.38;;;-1.44;100.00
43770;BME280;6597;52.218;9.882;2022-12-11T00:41:03;100348.38;;;-1.44;100.00
43770;BME280;6597;52.218;9.882;2022-12-11T00:43:30;100350.94;;;-1.47;100.00
43770;BME280;6597;52.218;9.882;2022-12-11T00:45:57;100345.72;;;-1.56;100.00
43770;BME280;6597;52.218;9.882;2022-12-11T00:48:23;100351.78;;;-1.49;100.00
43770;BME280;6597;52.218;9.882;2022-12-11T00:50:50;100357.75;;;-1.55;100.00
43770;BME280;6597;52.218;9.882;2022-12-11T00:53:17;100356.06;;;-1.50;100.00
43770;BME280;6597;52.218;9.882;2022-12-11T00:55:44;100358.66;;;-1.48;100.00
43770;BME280;6597;52.218;9.882;2022-12-11T00:58:11;100363.78;;;-1.50;100.00
43770;BME280;6597;52.218;9.882;2022-12-11T01:00:39;100358.63;;;-1.50;100.00
43770;BME280;6597;52.218;9.882;2022-12-11T01:03:06;100358.66;;;-1.45;100.00
43770;BME280;6597;52.218;9.882;2022-12-11T01:05:33;100349.25;;;-1.43;100.00
43770;BME280;6597;52.218;9.882;2022-12-11T01:08:00;100361.25;;;-1.44;100.00
43770;BME280;6597;52.218;9.882;2022-12-11T01:10:28;100351.81;;;-1.45;100.00
43770;BME280;6597;52.218;9.882;2022-12-11T01:12:55;100361.22;;;-1.47;100.00
43770;BME280;6597;52.218;9.882;2022-12-11T01:15:27;100366.38;;;-1.47;100.00
43770;BME280;6597;52.218;9.882;2022-12-11T01:17:54;100379.25;;;-1.48;100.00
43770;BME280;6597;52.218;9.882;2022-12-11T01:20:23;100371.53;;;-1.47;100.00
43770;BME280;6597;52.218;9.882;2022-12-11T01:22:51;100364.69;;;-1.43;100.00
43770;BME280;6597;52.218;9.882;2022-12-11T01:25:17;100362.09;;;-1.48;100.00
43770;BME280;6597;52.218;9.882;2022-12-11T01:27:45;100362.94;;;-1.50;100.00
43770;BME280;6597;52.218;9.882;2022-12-11T01:30:12;100368.91;;;-1.53;100.00
43770;BME280;6597;52.218;9.882;2022-12-11T01:32:39;100365.53;;;-1.46;100.00
43770;BME280;6597;52.218;9.882;2022-12-11T01:35:06;100368.13;;;-1.44;100.00
43770;BME280;6597;52.218;9.882;2022-12-11T01:37:34;100367.25;;;-1.43;100.00
43770;BME280;6597;52.218;9.882;2022-12-11T01:40:01;100368.09;;;-1.46;100.00
43770;BME280;6597;52.218;9.882;2022-12-11T01:42:27;100365.50;;;-1.52;100.00
43770;BME280;6597;52.218;9.882;2022-12-11T01:45:30;100359.47;;;-1.52;100.00
43770;BME280;6597;52.218;9.882;2022-12-11T01:48:01;100364.59;;;-1.59;100.00
43770;BME280;6597;52.218;9.882;2022-12-11T01:50:30;100355.19;;;-1.52;100.00
43770;BME280;6597;52.218;9.882;2022-12-11T01:52:59;100354.34;;;-1.49;100.00
43770;BME280;6597;52.218;9.882;2022-12-11T01:55:26;100361.16;;;-1.59;100.00
43770;BME280;6597;52.218;9.882;2022-12-11T01:57:53;100367.16;;;-1.60;100.00
43770;BME280;6597;52.218;9.882;2022-12-11T02:00:20;100365.44;;;-1.60;100.00
43770;BME280;6597;52.218;9.882;2022-12-11T02:02:48;100359.47;;;-1.55;100.00
43770;BME280;6597;52.218;9.882;2022-12-11T02:07:48;100368.03;;;-1.58;100.00
43770;BME280;6597;52.218;9.882;2022-12-11T02:10:17;100364.59;;;-1.57;100.00
43770;BME280;6597;52.218;9.882;2022-12-11T02:12:55;100360.31;;;-1.55;100.00
43770;BME280;6597;52.218;9.882;2022-12-11T02:15:29;100362.00;;;-1.59;100.00
43770;BME280;6597;52.218;9.882;2022-12-11T02:18:06;100366.34;;;-1.54;100.00
43770;BME280;6597;52.218;9.882;2022-12-11T02:20:41;100365.47;;;-1.53;100.00
43770;BME280;6597;52.218;9.882;2022-12-11T02:23:20;100361.19;;;-1.54;100.00
43770;BME280;6597;52.218;9.882;2022-12-11T02:25:55;100365.47;;;-1.53;100.00
43770;BME280;6597;52.218;9.882;2022-12-11T02:28:31;100362.91;;;-1.55;100.00
43770;BME280;6597;52.218;9.882;2022-12-11T02:31:03;100364.66;;;-1.49;100.00
43770;BME280;6597;52.218;9.882;2022-12-11T02:33:33;100368.91;;;-1.53;100.00
43770;BME280;6597;52.218;9.882;2022-12-11T02:36:04;100362.00;;;-1.60;100.00
43770;BME280;6597;52.218;9.882;2022-12-11T02:38:35;100356.78;;;-1.65;100.00
43770;BME280;6597;52.218;9.882;2022-12-11T02:41:04;100364.50;;;-1.65;100.00
43770;BME280;6597;52.218;9.882;2022-12-11T02:43:35;100353.41;;;-1.62;100.00
43770;BME280;6597;52.218;9.882;2022-12-11T02:46:03;100359.44;;;-1.59;100.00
43770;BME280;6597;52.218;9.882;2022-12-11T02:48:32;100360.28;;;-1.60;100.00
43770;BME280;6597;52.218;9.882;2022-12-11T02:51:00;100362.00;;;-1.62;100.00
43770;BME280;6597;52.218;9.882;2022-12-11T02:53:30;100360.31;;;-1.58;100.00
43770;BME280;6597;52.218;9.882;2022-12-11T02:56:01;100362.03;;;-1.57;100.00
43770;BME280;6597;52.218;9.882;2022-12-11T02:58:30;100357.75;;;-1.57;100.00
43770;BME280;6597;52.218;9.882;2022-12-11T03:00:59;100347.41;;;-1.63;100.00
43770;BME280;6597;52.218;9.882;2022-12-11T03:03:27;100352.56;;;-1.63;100.00
43770;BME280;6597;52.218;9.882;2022-12-11T03:05:55;100356.78;;;-1.68;100.00
43770;BME280;6597;52.218;9.882;2022-12-11T03:08:21;100355.13;;;-1.63;100.00
43770;BME280;6597;52.218;9.882;2022-12-11T03:10:48;100348.28;;;-1.61;100.00
43770;BME280;6597;52.218;9.882;2022-12-11T03:13:17;100343.13;;;-1.59;100.00
43770;BME280;6597;52.218;9.882;2022-12-11T03:15:54;100354.22;;;-1.66;100.00
43770;BME280;6597;52.218;9.882;2022-12-11T03:18:29;100356.78;;;-1.65;100.00
43770;BME280;6597;52.218;9.882;2022-12-11T03:21:04;100350.78;;;-1.64;100.00
43770;BME280;6597;52.218;9.882;2022-12-11T03:23:34;100347.31;;;-1.69;100.00
43770;BME280;6597;52.218;9.882;2022-12-11T03:26:07;100354.16;;;-1.72;100.00
43770;BME280;6597;52.218;9.882;2022-12-11T03:28:41;100341.25;;;-1.77;100.00
43770;BME280;6597;52.218;9.882;2022-12-11T03:31:12;100343.84;;;-1.75;100.00
43770;BME280;6597;52.218;9.882;2022-12-11T03:33:43;100341.25;;;-1.78;100.00
43770;BME280;6597;52.218;9.882;2022-12-11T03:36:13;100338.63;;;-1.86;100.00
43770;BME280;6597;52.218;9.882;2022-12-11T03:38:45;100336.91;;;-1.87;100.00
43770;BME280;6597;52.218;9.882;2022-12-11T03:41:15;100326.63;;;-1.87;100.00
43770;BME280;6597;52.218;9.882;2022-12-11T03:43:43;100331.75;;;-1.89;100.00
43770;BME280;6597;52.218;9.882;2022-12-11T03:46:12;100333.47;;;-1.89;100.00
43770;BME280;6597;52.218;9.882;2022-12-11T03:48:43;100335.16;;;-1.91;100.00
43770;BME280;6597;52.218;9.882;2022-12-11T03:51:11;100338.59;;;-1.92;100.00
43770;BME280;6597;52.218;9.882;2022-12-11T03:53:38;100337.75;;;-1.86;100.00
43770;BME280;6597;52.218;9.882;2022-12-11T03:56:07;100340.28;;;-1.93;100.00
43770;BME280;6597;52.218;9.882;2022-12-11T03:58:35;100352.31;;;-1.92;100.00
43770;BME280;6597;52.218;9.882;2022-12-11T04:01:02;100346.28;;;-1.92;100.00
43770;BME280;6597;52.218;9.882;2022-12-11T04:03:29;100347.16;;;-1.92;100.00
43770;BME280;6597;52.218;9.882;2022-12-11T04:05:57;100354.03;;;-1.89;100.00
43770;BME280;6597;52.218;9.882;2022-12-11T04:08:23;100356.63;;;-1.88;100.00
43770;BME280;6597;52.218;9.882;2022-12-11T04:10:50;100354.00;;;-1.92;100.00
43770;BME280;6597;52.218;9.882;2022-12-11T04:13:39;100349.72;;;-1.93;100.00
43770;BME280;6597;52.218;9.882;2022-12-11T04:16:07;100340.28;;;-1.94;100.00
43770;BME280;6597;52.218;9.882;2022-12-11T04:18:33;100348.84;;;-1.95;100.00
43770;BME280;6597;52.218;9.882;2022-12-11T04:21:19;100347.06;;;-1.98;100.00
43770;BME280;6597;52.218;9.882;2022-12-11T04:24:03;100344.50;;;-1.96;100.00
43770;BME280;6597;52.218;9.882;2022-12-11T04:26:43;100345.31;;;-2.02;100.00
43770;BME280;6597;52.218;9.882;2022-12-11T04:29:10;100350.47;;;-2.00;100.00
43770;BME280;6597;52.218;9.882;2022-12-11T04:31:36;100347.06;;;-1.98;100.00
43770;BME280;6597;52.218;9.882;2022-12-11T04:34:03;100347.09;;;-1.96;100.00
43770;BME280;6597;52.218;9.882;2022-12-11T04:36:31;100342.00;;;-1.92;100.00
43770;BME280;6597;52.218;9.882;2022-12-11T04:38:57;100342.03;;;-1.87;100.00
43770;BME280;6597;52.218;9.882;2022-12-11T04:41:24;100345.47;;;-1.86;100.00
43770;BME280;6597;52.218;9.882;2022-12-11T04:43:50;100338.63;;;-1.88;100.00
43770;BME280;6597;52.218;9.882;2022-12-11T04:46:18;100345.47;;;-1.90;100.00
43770;BME280;6597;52.218;9.882;2022-12-11T04:48:46;100354.78;;;-1.98;100.00
43770;BME280;6597;52.218;9.882;2022-12-11T04:51:12;100346.28;;;-1.94;100.00
43770;BME280;6597;52.218;9.882;2022-12-11T04:53:41;100348.84;;;-1.95;100.00
43770;BME280;6597;52.218;9.882;2022-12-11T04:56:09;100339.44;;;-1.93;100.00
43770;BME280;6597;52.218;9.882;2022-12-11T04:58:37;100345.47;;;-1.90;100.00
43770;BME280;6597;52.218;9.882;2022-12-11T05:01:06;100346.31;;;-1.91;100.00
43770;BME280;6597;52.218;9.882;2022-12-11T05:03:33;100346.28;;;-1.92;100.00
43770;BME280;6597;52.218;9.882;2022-12-11T05:06:00;100347.09;;;-1.96;100.00
43770;BME280;6597;52.218;9.882;2022-12-11T05:08:27;100339.44;;;-1.92;100.00
43770;BME280;6597;52.218;9.882;2022-12-11T05:10:55;100341.09;;;-1.97;100.00
43770;BME280;6597;52.218;9.882;2022-12-11T05:13:22;100324.66;;;-2.12;100.00
43770;BME280;6597;52.218;9.882;2022-12-11T05:15:48;100329.84;;;-2.06;100.00
43770;BME280;6597;52.218;9.882;2022-12-11T05:18:15;100327.34;;;-1.99;100.00
43770;BME280;6597;52.218;9.882;2022-12-11T05:20:42;100330.00;;;-1.93;100.00
43770;BME280;6597;52.218;9.882;2022-12-11T05:23:08;100331.66;;;-1.96;100.00
43770;BME280;6597;52.218;9.882;2022-12-11T05:25:35;100329.94;;;-1.96;100.00
43770;BME280;6597;52.218;9.882;2022-12-11T05:28:02;100320.50;;;-1.97;100.00
43770;BME280;6597;52.218;9.882;2022-12-11T05:30:29;100322.22;;;-1.96;100.00
43770;BME280;6597;52.218;9.882;2022-12-11T05:32:55;100328.22;;;-1.97;100.00
43770;BME280;6597;52.218;9.882;2022-12-11T05:35:23;100325.75;;;-1.89;100.00
43770;BME280;6597;52.218;9.882;2022-12-11T05:37:49;100330.00;;;-1.94;100.00
43770;BME280;6597;52.218;9.882;2022-12-11T05:40:16;100333.44;;;-1.92;100.00
43770;BME280;6597;52.218;9.882;2022-12-11T05:42:42;100333.44;;;-1.92;100.00
43770;BME280;6597;52.218;9.882;2022-12-11T05:45:10;100338.50;;;-1.97;100.00
43770;BME280;6597;52.218;9.882;2022-12-11T05:47:37;100338.47;;;-2.01;100.00
43770;BME280;6597;52.218;9.882;2022-12-11T05:50:04;100333.28;;;-2.06;100.00
43770;BME280;6597;52.218;9.882;2022-12-11T05:52:30;100328.09;;;-2.13;100.00
43770;BME280;6597;52.218;9.882;2022-12-11T05:54:57;100322.03;;;-2.22;100.00
43770;BME280;6597;52.218;9.882;2022-12-11T05:57:24;100332.41;;;-2.09;100.00
43770;BME280;6597;52.218;9.882;2022-12-11T05:59:50;100336.69;;;-2.08;100.00
43770;BME280;6597;52.218;9.882;2022-12-11T06:02:18;100325.53;;;-2.10;100.00
43770;BME280;6597;52.218;9.882;2022-12-11T06:04:44;100323.00;;;-2.06;100.00
43770;BME280;6597;52.218;9.882;2022-12-11T06:07:12;100320.47;;;-2.03;100.00
43770;BME280;6597;52.218;9.882;2022-12-11T06:09:39;100317.00;;;-2.05;100.00
43770;BME280;6597;52.218;9.882;2022-12-11T06:12:06;100324.75;;;-2.03;100.00
43770;BME280;6597;52.218;9.882;2022-12-11T06:14:32;100310.19;;;-2.01;100.00
43770;BME280;6597;52.218;9.882;2022-12-11T06:16:59;100309.34;;;-2.00;100.00
43770;BME280;6597;52.218;9.882;2022-12-11T06:19:27;100307.63;;;-2.00;100.00
43770;BME280;6597;52.218;9.882;2022-12-11T06:21:53;100306.75;;;-2.00;100.00
43770;BME280;6597;52.218;9.882;2022-12-11T06:24:20;100311.88;;;-2.05;100.00
43770;BME280;6597;52.218;9.882;2022-12-11T06:26:46;100305.94;;;-1.98;100.00
43770;BME280;6597;52.218;9.882;2022-12-11T06:29:13;100310.19;;;-2.01;100.00
43770;BME280;6597;52.218;9.882;2022-12-11T06:31:40;100298.19;;;-2.01;100.00
43770;BME280;6597;52.218;9.882;2022-12-11T06:34:07;100299.06;;;-1.99;100.00
43770;BME280;6597;52.218;9.882;2022-12-11T06:36:35;100302.50;;;-1.98;100.00
43770;BME280;6597;52.218;9.882;2022-12-11T06:39:02;100309.34;;;-1.99;100.00
43770;BME280;6597;52.218;9.882;2022-12-11T06:41:28;100303.44;;;-1.92;100.00
43770;BME280;6597;52.218;9.882;2022-12-11T06:43:55;100307.72;;;-1.91;100.00
43770;BME280;6597;52.218;9.882;2022-12-11T06:46:21;100313.75;;;-1.89;100.00
43770;BME280;6597;52.218;9.882;2022-12-11T06:48:49;100301.72;;;-1.93;100.00
43770;BME280;6597;52.218;9.882;2022-12-11T06:51:17;100312.00;;;-1.90;100.00
43770;BME280;6597;52.218;9.882;2022-12-11T06:53:49;100308.59;;;-1.89;100.00
43770;BME280;6597;52.218;9.882;2022-12-11T06:56:17;100310.31;;;-1.86;100.00
43770;BME280;6597;52.218;9.882;2022-12-11T06:58:43;100311.13;;;-1.93;100.00
43770;BME280;6597;52.218;9.882;2022-12-11T07:01:15;100315.38;;;-1.97;100.00
43770;BME280;6597;52.218;9.882;2022-12-11T07:03:42;100322.28;;;-1.93;100.00
43770;BME280;6597;52.218;9.882;2022-12-11T07:06:09;100314.47;;;-2.02;100.00
43770;BME280;6597;52.218;9.882;2022-12-11T07:08:36;100315.34;;;-2.00;100.00
43770;BME280;6597;52.218;9.882;2022-12-11T07:11:05;100329.94;;;-1.97;100.00
43770;BME280;6597;52.218;9.882;2022-12-11T07:13:32;100340.22;;;-1.97;100.00
43770;BME280;6597;52.218;9.882;2022-12-11T07:16:00;100337.63;;;-1.99;100.00
43770;BME280;6597;52.218;9.882;2022-12-11T07:18:29;100340.19;;;-2.00;100.00
43770;BME280;6597;52.218;9.882;2022-12-11T07:20:57;100334.97;;;-2.11;100.00
43770;BME280;6597;52.218;9.882;2022-12-11T07:23:24;100342.69;;;-2.11;100.00
43770;BME280;6597;52.218;9.882;2022-12-11T07:25:50;100338.41;;;-2.07;100.00
43770;BME280;6597;52.218;9.882;2022-12-11T07:28:19;100343.59;;;-2.06;100.00
43770;BME280;6597;52.218;9.882;2022-12-11T07:30:46;100340.16;;;-2.05;100.00
43770;BME280;6597;52.218;9.882;2022-12-11T07:33:12;100344.44;;;-2.05;100.00
43770;BME280;6597;52.218;9.882;2022-12-11T07:35:40;100341.84;;;-2.08;100.00
43770;BME280;6597;52.218;9.882;2022-12-11T07:38:07;100346.97;;;-2.11;100.00
43770;BME280;6597;52.218;9.882;2022-12-11T07:40:34;100352.09;;;-2.11;100.00
43770;BME280;6597;52.218;9.882;2022-12-11T07:43:01;100349.53;;;-2.13;100.00
43770;BME280;6597;52.218;9.882;2022-12-11T07:45:29;100346.13;;;-2.09;100.00
43770;BME280;6597;52.218;9.882;2022-12-11T07:47:56;100345.28;;;-2.06;100.00
43770;BME280;6597;52.218;9.882;2022-12-11T07:50:23;100347.00;;;-2.05;100.00
43770;BME280;6597;52.218;9.882;2022-12-11T07:52:49;100356.50;;;-2.00;100.00
43770;BME280;6597;52.218;9.882;2022-12-11T07:55:16;100347.94;;;-1.99;100.00
43770;BME280;6597;52.218;9.882;2022-12-11T07:57:43;100350.44;;;-2.05;100.00
43770;BME280;6597;52.218;9.882;2022-12-11T08:00:10;100348.69;;;-2.09;100.00
43770;BME280;6597;52.218;9.882;2022-12-11T08:02:41;100341.88;;;-2.05;100.00
43770;BME280;6597;52.218;9.882;2022-12-11T08:05:08;100342.75;;;-2.03;100.00
43770;BME280;6597;52.218;9.882;2022-12-11T08:07:34;100350.47;;;-2.00;100.00
43770;BME280;6597;52.218;9.882;2022-12-11T08:10:01;100342.78;;;-2.00;100.00
43770;BME280;6597;52.218;9.882;2022-12-11T08:12:28;100342.78;;;-1.97;100.00
43770;BME280;6597;52.218;9.882;2022-12-11T08:14:55;100356.59;;;-1.92;100.00
43770;BME280;6597;52.218;9.882;2022-12-11T08:17:21;100354.81;;;-1.96;100.00
43770;BME280;6597;52.218;9.882;2022-12-11T08:19:49;100349.72;;;-1.95;100.00
43770;BME280;6597;52.218;9.882;2022-12-11T08:22:16;100350.56;;;-1.94;100.00
43770;BME280;6597;52.218;9.882;2022-12-11T08:24:42;100355.72;;;-1.94;100.00
43770;BME280;6597;52.218;9.882;2022-12-11T08:27:09;100346.28;;;-1.92;100.00
43770;BME280;6597;52.218;9.882;2022-12-11T08:29:36;100344.56;;;-1.93;100.00
43770;BME280;6597;52.218;9.882;2022-12-11T08:32:02;100359.19;;;-1.89;100.00
43770;BME280;6597;52.218;9.882;2022-12-11T08:34:29;100351.41;;;-1.95;100.00
43770;BME280;6597;52.218;9.882;2022-12-11T08:36:57;100351.38;;;-1.97;100.00
43770;BME280;6597;52.218;9.882;2022-12-11T08:39:24;100359.16;;;-1.91;100.00
43770;BME280;6597;52.218;9.882;2022-12-11T08:41:51;100365.19;;;-1.90;100.00
43770;BME280;6597;52.218;9.882;2022-12-11T08:44:17;100362.50;;;-1.99;100.00
43770;BME280;6597;52.218;9.882;2022-12-11T08:46:44;100345.34;;;-1.99;100.00
43770;BME280;6597;52.218;9.882;2022-12-11T08:49:11;100350.50;;;-1.97;100.00
43770;BME280;6597;52.218;9.882;2022-12-11T08:51:37;100355.72;;;-1.93;100.00
43770;BME280;6597;52.218;9.882;2022-12-11T08:54:05;100351.44;;;-1.92;100.00
43770;BME280;6597;52.218;9.882;2022-12-11T08:56:32;100355.75;;;-1.90;100.00
43770;BME280;6597;52.218;9.882;2022-12-11T08:58:59;100355.75;;;-1.88;100.00
43770;BME280;6597;52.218;9.882;2022-12-11T09:01:26;100353.19;;;-1.88;100.00
43770;BME280;6597;52.218;9.882;2022-12-11T09:03:54;100354.06;;;-1.88;100.00
43770;BME280;6597;52.218;9.882;2022-12-11T09:06:23;100348.91;;;-1.86;100.00
43770;BME280;6597;52.218;9.882;2022-12-11T09:08:51;100351.50;;;-1.83;100.00
43770;BME280;6597;52.218;9.882;2022-12-11T09:11:21;100347.19;;;-1.85;100.00
43770;BME280;6597;52.218;9.882;2022-12-11T09:13:48;100348.06;;;-1.83;100.00
43770;BME280;6597;52.218;9.882;2022-12-11T09:16:17;100347.22;;;-1.84;100.00
43770;BME280;6597;52.218;9.882;2022-12-11T09:18:45;100341.19;;;-1.86;100.00
43770;BME280;6597;52.218;9.882;2022-12-11T09:21:13;100344.63;;;-1.85;100.00
43770;BME280;6597;52.218;9.882;2022-12-11T09:23:40;100342.06;;;-1.84;99.79
43770;BME280;6597;52.218;9.882;2022-12-11T09:26:09;100343.78;;;-1.86;100.00
43770;BME280;6597;52.218;9.882;2022-12-11T09:28:37;100348.13;;;-1.79;100.00
43770;BME280;6597;52.218;9.882;2022-12-11T09:31:07;100343.03;;;-1.70;100.00
43770;BME280;6597;52.218;9.882;2022-12-11T09:33:34;100345.66;;;-1.64;99.82
43770;BME280;6597;52.218;9.882;2022-12-11T09:36:01;100344.78;;;-1.66;99.37
43770;BME280;6597;52.218;9.882;2022-12-11T09:38:28;100329.34;;;-1.66;99.25
43770;BME280;6597;52.218;9.882;2022-12-11T09:40:55;100329.41;;;-1.60;99.59
43770;BME280;6597;52.218;9.882;2022-12-11T09:43:31;100330.28;;;-1.54;99.34
43770;BME280;6597;52.218;9.882;2022-12-11T09:46:05;100330.28;;;-1.58;99.33
43770;BME280;6597;52.218;9.882;2022-12-11T09:48:35;100327.69;;;-1.61;98.62
43770;BME280;6597;52.218;9.882;2022-12-11T09:51:09;100335.44;;;-1.58;99.15
43770;BME280;6597;52.218;9.882;2022-12-11T09:53:38;100333.72;;;-1.57;99.48
43770;BME280;6597;52.218;9.882;2022-12-11T09:56:12;100342.31;;;-1.53;99.73
43770;BME280;6597;52.218;9.882;2022-12-11T09:58:51;100337.13;;;-1.60;98.67
43770;BME280;6597;52.218;9.882;2022-12-11T10:01:25;100336.28;;;-1.59;97.81
43770;BME280;6597;52.218;9.882;2022-12-11T10:04:14;100332.00;;;-1.57;98.28
43770;BME280;6597;52.218;9.882;2022-12-11T10:06:48;100326.88;;;-1.50;98.50
43770;BME280;6597;52.218;9.882;2022-12-11T10:09:24;100317.47;;;-1.47;98.59
43770;BME280;6597;52.218;9.882;2022-12-11T10:12:01;100313.19;;;-1.43;98.54
43770;BME280;6597;52.218;9.882;2022-12-11T10:14:42;100306.38;;;-1.35;98.36
43770;BME280;6597;52.218;9.882;2022-12-11T10:17:18;100315.81;;;-1.36;97.42
43770;BME280;6597;52.218;9.882;2022-12-11T10:19:45;100316.69;;;-1.32;96.67
43770;BME280;6597;52.218;9.882;2022-12-11T10:22:16;100309.88;;;-1.26;95.87
43770;BME280;6597;52.218;9.882;2022-12-11T10:24:49;100312.47;;;-1.22;95.92
43770;BME280;6597;52.218;9.882;2022-12-11T10:27:21;100318.50;;;-1.17;95.50
43770;BME280;6597;52.218;9.882;2022-12-11T10:29:58;100310.78;;;-1.20;95.21
43770;BME280;6597;52.218;9.882;2022-12-11T10:32:32;100311.63;;;-1.23;95.38
43770;BME280;6597;52.218;9.882;2022-12-11T10:35:04;100303.91;;;-1.18;95.65
43770;BME280;6597;52.218;9.882;2022-12-11T10:37:31;100295.31;;;-1.19;95.82
43770;BME280;6597;52.218;9.882;2022-12-11T10:39:58;100296.19;;;-1.15;95.97
43770;BME280;6597;52.218;9.882;2022-12-11T10:42:24;100299.66;;;-1.06;95.98
43770;BME280;6597;52.218;9.882;2022-12-11T10:44:58;100296.25;;;-0.99;95.99
43770;BME280;6597;52.218;9.882;2022-12-11T10:47:25;100286.81;;;-0.98;95.24
43770;BME280;6597;52.218;9.882;2022-12-11T10:49:55;100293.75;;;-0.91;95.03
43770;BME280;6597;52.218;9.882;2022-12-11T10:52:24;100286.03;;;-0.88;94.47
43770;BME280;6597;52.218;9.882;2022-12-11T10:54:58;100290.34;;;-0.79;94.66
43770;BME280;6597;52.218;9.882;2022-12-11T10:57:27;100287.78;;;-0.72;94.29
43770;BME280;6597;52.218;9.882;2022-12-11T10:59:54;100285.19;;;-0.72;92.42
43770;BME280;6597;52.218;9.882;2022-12-11T11:02:24;100281.78;;;-0.66;92.56
43770;BME280;6597;52.218;9.882;2022-12-11T11:04:53;100286.09;;;-0.62;92.16
43770;BME280;6597;52.218;9.882;2022-12-11T11:07:22;100285.25;;;-0.61;91.57
43770;BME280;6597;52.218;9.882;2022-12-11T11:09:50;100285.25;;;-0.55;91.76
43770;BME280;6597;52.218;9.882;2022-12-11T11:12:21;100291.28;;;-0.50;91.79
43770;BME280;6597;52.218;9.882;2022-12-11T11:14:58;100283.56;;;-0.44;92.15
43770;BME280;6597;52.218;9.882;2022-12-11T11:17:24;100287.84;;;-0.40;92.07
43770;BME280;6597;52.218;9.882;2022-12-11T11:19:53;100280.13;;;-0.43;91.34
43770;BME280;6597;52.218;9.882;2022-12-11T11:22:21;100283.56;;;-0.42;91.09
43770;BME280;6597;52.218;9.882;2022-12-11T11:24:52;100286.13;;;-0.42;91.48
43770;BME280;6597;52.218;9.882;2022-12-11T11:27:26;100275.81;;;-0.41;91.94
43770;BME280;6597;52.218;9.882;2022-12-11T11:29:54;100277.53;;;-0.46;91.54
43770;BME280;6597;52.218;9.882;2022-12-11T11:32:25;100273.22;;;-0.59;91.14
43770;BME280;6597;52.218;9.882;2022-12-11T11:35:15;100279.19;;;-0.75;90.92
43770;BME280;6597;52.218;9.882;2022-12-11T11:37:44;100271.44;;;-0.78;91.49
43770;BME280;6597;52.218;9.882;2022-12-11T11:40:15;100271.41;;;-0.87;92.01
43770;BME280;6597;52.218;9.882;2022-12-11T11:42:48;100280.84;;;-0.97;92.57
43770;BME280;6597;52.218;9.882;2022-12-11T11:45:21;100279.06;;;-1.03;92.53
43770;BME280;6597;52.218;9.882;2022-12-11T11:47:57;100284.22;;;-1.00;93.15
43770;BME280;6597;52.218;9.882;2022-12-11T11:50:29;100287.72;;;-0.96;93.41
43770;BME280;6597;52.218;9.882;2022-12-11T11:53:04;100280.88;;;-0.86;93.25
43770;BME280;6597;52.218;9.882;2022-12-11T11:55:38;100276.56;;;-0.86;92.76
43770;BME280;6597;52.218;9.882;2022-12-11T11:58:10;100274.88;;;-0.79;92.72
43770;BME280;6597;52.218;9.882;2022-12-11T12:00:38;100264.56;;;-0.78;92.20
43770;BME280;6597;52.218;9.882;2022-12-11T12:03:10;100278.31;;;-0.71;91.98
43770;BME280;6597;52.218;9.882;2022-12-11T12:08:31;100271.50;;;-0.61;91.45
43770;BME280;6597;52.218;9.882;2022-12-11T12:11:04;100262.06;;;-0.63;90.52
43770;BME280;6597;52.218;9.882;2022-12-11T12:13:41;100264.59;;;-0.67;91.34
43770;BME280;6597;52.218;9.882;2022-12-11T12:16:15;100267.16;;;-0.66;91.61
43770;BME280;6597;52.218;9.882;2022-12-11T12:18:51;100256.84;;;-0.66;91.30
43770;BME280;6597;52.218;9.882;2022-12-11T12:21:29;100257.72;;;-0.68;91.18
43770;BME280;6597;52.218;9.882;2022-12-11T12:24:07;100254.28;;;-0.66;90.92
43770;BME280;6597;52.218;9.882;2022-12-11T12:26:42;100251.69;;;-0.70;90.32
43770;BME280;6597;52.218;9.882;2022-12-11T12:29:16;100249.97;;;-0.71;89.28
43770;BME280;6597;52.218;9.882;2022-12-11T12:31:58;100241.38;;;-0.82;89.25
43770;BME280;6597;52.218;9.882;2022-12-11T12:34:39;100249.09;;;-0.76;89.99
43770;BME280;6597;52.218;9.882;2022-12-11T12:37:17;100252.56;;;-0.67;90.31
43770;BME280;6597;52.218;9.882;2022-12-11T12:39:55;100248.25;;;-0.68;90.98
43770;BME280;6597;52.218;9.882;2022-12-11T12:42:32;100243.97;;;-0.69;89.03
43770;BME280;6597;52.218;9.882;2022-12-11T12:45:09;100237.97;;;-0.66;88.75
43770;BME280;6597;52.218;9.882;2022-12-11T12:47:43;100245.72;;;-0.58;88.36
43770;BME280;6597;52.218;9.882;2022-12-11T12:50:15;100242.31;;;-0.48;88.52
43770;BME280;6597;52.218;9.882;2022-12-11T12:52:43;100238.88;;;-0.37;88.52
43770;BME280;6597;52.218;9.882;2022-12-11T12:55:19;100241.47;;;-0.29;87.89
43770;BME280;6597;52.218;9.882;2022-12-11T12:57:50;100248.34;;;-0.25;86.25
43770;BME280;6597;52.218;9.882;2022-12-11T13:00:28;100244.06;;;-0.20;85.85
43770;BME280;6597;52.218;9.882;2022-12-11T13:02:57;100247.47;;;-0.33;84.20
43770;BME280;6597;52.218;9.882;2022-12-11T13:05:26;100247.47;;;-0.39;84.68
43770;BME280;6597;52.218;9.882;2022-12-11T13:07:55;100241.44;;;-0.53;85.33
43770;BME280;6597;52.218;9.882;2022-12-11T13:10:27;100247.44;;;-0.64;85.96